sensor_id;sensor_type;location;lat;lon;timestamp;P1;durP1;ratioP1;P2;durP2;ratioP2
3259;SDS011;22469;48.150;14.004;2023-02-10T00:01:22;39.10;;;19.00;;
3259;SDS011;22469;48.150;14.004;2023-02-10T00:03:54;30.83;;;19.87;;
3259;SDS011;22469;48.150;14.004;2023-02-10T00:06:23;26.17;;;16.77;;
3259;SDS011;22469;48.150;14.004;2023-02-10T00:08:53;24.73;;;17.70;;
3259;SDS011;22469;48.150;14.004;2023-02-10T00:11:24;23.67;;;16.57;;
3259;SDS011;22469;48.150;14.004;2023-02-10T00:14:11;32.17;;;17.87;;
3259;SDS011;22469;48.150;14.004;2023-02-10T00:16:40;28.87;;;17.30;;
3259;SDS011;22469;48.150;14.004;2023-02-10T00:19:07;29.13;;;18.77;;
3259;SDS011;22469;48.150;14.004;2023-02-10T00:21:34;24.87;;;16.03;;
3259;SDS011;22469;48.150;14.004;2023-02-10T00:24:02;22.83;;;17.93;;
3259;SDS011;22469;48.150;14.004;2023-02-10T00:26:29;24.33;;;17.70;;
3259;SDS011;22469;48.150;14.004;2023-02-10T00:28:56;32.23;;;19.57;;
3259;SDS011;22469;48.150;14.004;2023-02-10T00:31:23;30.43;;;19.20;;
3259;SDS011;22469;48.150;14.004;2023-02-10T00:33:51;33.97;;;18.53;;
3259;SDS011;22469;48.150;14.004;2023-02-10T00:36:18;29.00;;;17.87;;
3259;SDS011;22469;48.150;14.004;2023-02-10T00:38:45;29.70;;;18.43;;
3259;SDS011;22469;48.150;14.004;2023-02-10T00:41:13;33.67;;;16.63;;
3259;SDS011;22469;48.150;14.004;2023-02-10T00:43:43;27.80;;;17.00;;
3259;SDS011;22469;48.150;14.004;2023-02-10T00:46:11;29.10;;;18.20;;
3259;SDS011;22469;48.150;14.004;2023-02-10T00:48:41;32.50;;;17.63;;
3259;SDS011;22469;48.150;14.004;2023-02-10T00:51:10;25.77;;;16.10;;
3259;SDS011;22469;48.150;14.004;2023-02-10T00:53:39;22.77;;;17.50;;
3259;SDS011;22469;48.150;14.004;2023-02-10T00:56:06;22.20;;;16.37;;
3259;SDS011;22469;48.150;14.004;2023-02-10T00:58:34;29.43;;;17.33;;
3259;SDS011;22469;48.150;14.004;2023-02-10T01:01:01;24.27;;;16.90;;
3259;SDS011;22469;48.150;14.004;2023-02-10T01:03:30;23.83;;;16.67;;
3259;SDS011;22469;48.150;14.004;2023-02-10T01:05:57;25.57;;;16.10;;
3259;SDS011;22469;48.150;14.004;2023-02-10T01:08:24;22.73;;;14.50;;
3259;SDS011;22469;48.150;14.004;2023-02-10T01:10:58;27.80;;;17.23;;
3259;SDS011;22469;48.150;14.004;2023-02-10T01:13:36;24.70;;;16.30;;
3259;SDS011;22469;48.150;14.004;2023-02-10T01:16:05;23.97;;;15.93;;
3259;SDS011;22469;48.150;14.004;2023-02-10T01:18:40;27.50;;;18.87;;
3259;SDS011;22469;48.150;14.004;2023-02-10T01:23:37;24.10;;;16.90;;
3259;SDS011;22469;48.150;14.004;2023-02-10T01:26:04;24.77;;;16.10;;
3259;SDS011;22469;48.150;14.004;2023-02-10T01:28:31;28.00;;;16.50;;
3259;SDS011;22469;48.150;14.004;2023-02-10T01:30:58;27.33;;;16.67;;
3259;SDS011;22469;48.150;14.004;2023-02-10T01:33:43;28.97;;;16.37;;
3259;SDS011;22469;48.150;14.004;2023-02-10T01:36:12;25.60;;;16.00;;
3259;SDS011;22469;48.150;14.004;2023-02-10T01:38:41;24.63;;;16.77;;
3259;SDS011;22469;48.150;14.004;2023-02-10T01:41:09;27.70;;;17.50;;
3259;SDS011;22469;48.150;14.004;2023-02-10T01:46:28;25.87;;;17.80;;
3259;SDS011;22469;48.150;14.004;2023-02-10T01:48:58;30.10;;;18.67;;
3259;SDS011;22469;48.150;14.004;2023-02-10T01:51:37;26.97;;;17.90;;
3259;SDS011;22469;48.150;14.004;2023-02-10T01:54:45;25.47;;;15.83;;
3259;SDS011;22469;48.150;14.004;2023-02-10T01:57:17;32.60;;;18.13;;
3259;SDS011;22469;48.150;14.004;2023-02-10T01:59:45;21.93;;;16.77;;
3259;SDS011;22469;48.150;14.004;2023-02-10T02:02:13;26.83;;;17.60;;
3259;SDS011;22469;48.150;14.004;2023-02-10T02:04:52;33.43;;;17.30;;
3259;SDS011;22469;48.150;14.004;2023-02-10T02:07:27;31.30;;;16.30;;
3259;SDS011;22469;48.150;14.004;2023-02-10T02:09:59;23.47;;;16.60;;
3259;SDS011;22469;48.150;14.004;2023-02-10T02:12:36;33.37;;;19.10;;
3259;SDS011;22469;48.150;14.004;2023-02-10T02:18:24;22.63;;;15.43;;
3259;SDS011;22469;48.150;14.004;2023-02-10T02:28:14;25.63;;;18.17;;
3259;SDS011;22469;48.150;14.004;2023-02-10T02:36:57;20.30;;;14.13;;
3259;SDS011;22469;48.150;14.004;2023-02-10T02:39:32;30.50;;;16.70;;
3259;SDS011;22469;48.150;14.004;2023-02-10T02:42:21;23.10;;;16.20;;
3259;SDS011;22469;48.150;14.004;2023-02-10T02:45:11;25.20;;;17.10;;
3259;SDS011;22469;48.150;14.004;2023-02-10T02:48:09;25.43;;;16.30;;
3259;SDS011;22469;48.150;14.004;2023-02-10T02:58:59;27.77;;;18.00;;
3259;SDS011;22469;48.150;14.004;2023-02-10T03:01:42;23.13;;;15.23;;
3259;SDS011;22469;48.150;14.004;2023-02-10T03:04:26;22.83;;;14.90;;
3259;SDS011;22469;48.150;14.004;2023-02-10T03:06:57;22.37;;;15.20;;
3259;SDS011;22469;48.150;14.004;2023-02-10T03:09:24;21.40;;;15.13;;
3259;SDS011;22469;48.150;14.004;2023-02-10T03:11:53;25.57;;;15.77;;
3259;SDS011;22469;48.150;14.004;2023-02-10T03:14:20;24.40;;;14.93;;
3259;SDS011;22469;48.150;14.004;2023-02-10T03:16:47;27.00;;;16.50;;
3259;SDS011;22469;48.150;14.004;2023-02-10T03:19:14;21.77;;;15.93;;
3259;SDS011;22469;48.150;14.004;2023-02-10T03:21:42;22.40;;;16.93;;
3259;SDS011;22469;48.150;14.004;2023-02-10T03:24:09;25.77;;;15.40;;
3259;SDS011;22469;48.150;14.004;2023-02-10T03:26:36;25.10;;;18.30;;
3259;SDS011;22469;48.150;14.004;2023-02-10T03:29:04;26.47;;;16.47;;
3259;SDS011;22469;48.150;14.004;2023-02-10T03:31:32;28.43;;;16.67;;
3259;SDS011;22469;48.150;14.004;2023-02-10T03:34:00;21.53;;;15.10;;
3259;SDS011;22469;48.150;14.004;2023-02-10T03:36:27;29.43;;;18.20;;
3259;SDS011;22469;48.150;14.004;2023-02-10T03:38:54;21.13;;;14.93;;
3259;SDS011;22469;48.150;14.004;2023-02-10T03:41:21;23.53;;;15.33;;
3259;SDS011;22469;48.150;14.004;2023-02-10T03:43:48;22.73;;;16.27;;
3259;SDS011;22469;48.150;14.004;2023-02-10T03:46:15;26.20;;;16.70;;
3259;SDS011;22469;48.150;14.004;2023-02-10T03:48:42;23.20;;;15.70;;
3259;SDS011;22469;48.150;14.004;2023-02-10T03:51:09;22.70;;;15.50;;
3259;SDS011;22469;48.150;14.004;2023-02-10T03:53:37;22.87;;;15.77;;
3259;SDS011;22469;48.150;14.004;2023-02-10T03:56:04;24.93;;;15.50;;
3259;SDS011;22469;48.150;14.004;2023-02-10T03:58:32;28.17;;;16.93;;
3259;SDS011;22469;48.150;14.004;2023-02-10T04:01:07;23.00;;;16.53;;
3259;SDS011;22469;48.150;14.004;2023-02-10T04:03:37;19.20;;;14.03;;
3259;SDS011;22469;48.150;14.004;2023-02-10T04:06:05;22.87;;;16.13;;
3259;SDS011;22469;48.150;14.004;2023-02-10T04:08:34;27.63;;;17.03;;
3259;SDS011;22469;48.150;14.004;2023-02-10T04:11:01;22.80;;;14.50;;
3259;SDS011;22469;48.150;14.004;2023-02-10T04:13:29;28.50;;;17.33;;
3259;SDS011;22469;48.150;14.004;2023-02-10T04:16:01;25.03;;;14.30;;
3259;SDS011;22469;48.150;14.004;2023-02-10T04:18:28;23.87;;;14.47;;
3259;SDS011;22469;48.150;14.004;2023-02-10T04:20:55;24.43;;;15.27;;
3259;SDS011;22469;48.150;14.004;2023-02-10T04:23:22;27.93;;;15.67;;
3259;SDS011;22469;48.150;14.004;2023-02-10T04:25:49;22.40;;;16.53;;
3259;SDS011;22469;48.150;14.004;2023-02-10T04:28:16;20.80;;;14.30;;
3259;SDS011;22469;48.150;14.004;2023-02-10T04:30:43;26.80;;;15.33;;
3259;SDS011;22469;48.150;14.004;2023-02-10T04:33:10;27.40;;;14.97;;
3259;SDS011;22469;48.150;14.004;2023-02-10T04:35:37;24.67;;;16.80;;
3259;SDS011;22469;48.150;14.004;2023-02-10T04:38:04;23.97;;;15.10;;
3259;SDS011;22469;48.150;14.004;2023-02-10T04:40:31;22.10;;;15.30;;
3259;SDS011;22469;48.150;14.004;2023-02-10T04:42:58;24.43;;;15.77;;
3259;SDS011;22469;48.150;14.004;2023-02-10T04:45:25;28.73;;;16.17;;
3259;SDS011;22469;48.150;14.004;2023-02-10T04:47:52;23.70;;;15.33;;
3259;SDS011;22469;48.150;14.004;2023-02-10T04:50:19;27.57;;;16.57;;
3259;SDS011;22469;48.150;14.004;2023-02-10T04:52:46;25.90;;;16.37;;
3259;SDS011;22469;48.150;14.004;2023-02-10T04:55:13;27.83;;;16.93;;
3259;SDS011;22469;48.150;14.004;2023-02-10T04:57:40;23.87;;;15.30;;
3259;SDS011;22469;48.150;14.004;2023-02-10T05:00:07;25.87;;;16.53;;
3259;SDS011;22469;48.150;14.004;2023-02-10T05:02:36;26.30;;;14.33;;
3259;SDS011;22469;48.150;14.004;2023-02-10T05:05:03;25.20;;;15.00;;
3259;SDS011;22469;48.150;14.004;2023-02-10T05:07:30;24.57;;;15.93;;
3259;SDS011;22469;48.150;14.004;2023-02-10T05:09:58;25.40;;;15.57;;
3259;SDS011;22469;48.150;14.004;2023-02-10T05:12:25;18.30;;;13.77;;
3259;SDS011;22469;48.150;14.004;2023-02-10T05:14:52;21.70;;;14.60;;
3259;SDS011;22469;48.150;14.004;2023-02-10T05:17:19;22.20;;;14.60;;
3259;SDS011;22469;48.150;14.004;2023-02-10T05:19:46;18.23;;;13.10;;
3259;SDS011;22469;48.150;14.004;2023-02-10T05:22:13;21.40;;;14.27;;
3259;SDS011;22469;48.150;14.004;2023-02-10T05:24:40;20.80;;;13.10;;
3259;SDS011;22469;48.150;14.004;2023-02-10T05:27:08;25.23;;;15.10;;
3259;SDS011;22469;48.150;14.004;2023-02-10T05:29:35;24.13;;;15.17;;
3259;SDS011;22469;48.150;14.004;2023-02-10T05:32:02;27.17;;;15.30;;
3259;SDS011;22469;48.150;14.004;2023-02-10T05:34:29;20.77;;;15.30;;
3259;SDS011;22469;48.150;14.004;2023-02-10T05:36:56;22.27;;;15.30;;
3259;SDS011;22469;48.150;14.004;2023-02-10T05:39:23;20.50;;;14.90;;
3259;SDS011;22469;48.150;14.004;2023-02-10T05:41:53;20.93;;;12.83;;
3259;SDS011;22469;48.150;14.004;2023-02-10T05:44:24;27.27;;;14.13;;
3259;SDS011;22469;48.150;14.004;2023-02-10T05:46:53;28.57;;;15.17;;
3259;SDS011;22469;48.150;14.004;2023-02-10T05:49:20;24.77;;;17.23;;
3259;SDS011;22469;48.150;14.004;2023-02-10T05:51:48;25.83;;;15.13;;
3259;SDS011;22469;48.150;14.004;2023-02-10T05:54:17;22.50;;;15.47;;
3259;SDS011;22469;48.150;14.004;2023-02-10T05:56:44;24.33;;;14.93;;
3259;SDS011;22469;48.150;14.004;2023-02-10T05:59:11;27.10;;;15.43;;
3259;SDS011;22469;48.150;14.004;2023-02-10T06:01:41;24.30;;;16.17;;
3259;SDS011;22469;48.150;14.004;2023-02-10T06:04:09;30.43;;;14.40;;
3259;SDS011;22469;48.150;14.004;2023-02-10T06:06:36;24.83;;;15.43;;
3259;SDS011;22469;48.150;14.004;2023-02-10T06:09:04;19.60;;;13.67;;
3259;SDS011;22469;48.150;14.004;2023-02-10T06:11:31;24.70;;;14.90;;
3259;SDS011;22469;48.150;14.004;2023-02-10T06:13:59;23.77;;;14.63;;
3259;SDS011;22469;48.150;14.004;2023-02-10T06:16:26;24.00;;;16.37;;
3259;SDS011;22469;48.150;14.004;2023-02-10T06:18:53;24.57;;;15.97;;
3259;SDS011;22469;48.150;14.004;2023-02-10T06:21:21;20.80;;;14.53;;
3259;SDS011;22469;48.150;14.004;2023-02-10T06:23:49;25.40;;;15.63;;
3259;SDS011;22469;48.150;14.004;2023-02-10T06:26:16;27.57;;;16.77;;
3259;SDS011;22469;48.150;14.004;2023-02-10T06:28:44;26.30;;;18.07;;
3259;SDS011;22469;48.150;14.004;2023-02-10T06:31:11;34.07;;;18.07;;
3259;SDS011;22469;48.150;14.004;2023-02-10T06:33:38;30.90;;;19.03;;
3259;SDS011;22469;48.150;14.004;2023-02-10T06:36:05;31.37;;;18.93;;
3259;SDS011;22469;48.150;14.004;2023-02-10T06:38:34;27.00;;;17.47;;
3259;SDS011;22469;48.150;14.004;2023-02-10T06:41:03;26.17;;;16.60;;
3259;SDS011;22469;48.150;14.004;2023-02-10T06:43:32;26.60;;;17.97;;
3259;SDS011;22469;48.150;14.004;2023-02-10T06:45:59;27.83;;;17.53;;
3259;SDS011;22469;48.150;14.004;2023-02-10T06:48:26;26.93;;;17.67;;
3259;SDS011;22469;48.150;14.004;2023-02-10T06:50:54;26.37;;;17.77;;
3259;SDS011;22469;48.150;14.004;2023-02-10T06:53:21;25.17;;;17.33;;
3259;SDS011;22469;48.150;14.004;2023-02-10T06:55:48;27.10;;;15.60;;
3259;SDS011;22469;48.150;14.004;2023-02-10T06:58:16;26.87;;;16.40;;
3259;SDS011;22469;48.150;14.004;2023-02-10T07:00:43;24.20;;;16.20;;
3259;SDS011;22469;48.150;14.004;2023-02-10T07:03:12;28.77;;;17.37;;
3259;SDS011;22469;48.150;14.004;2023-02-10T07:05:41;31.30;;;20.33;;
3259;SDS011;22469;48.150;14.004;2023-02-10T07:08:08;30.27;;;19.60;;
3259;SDS011;22469;48.150;14.004;2023-02-10T07:10:36;34.70;;;21.10;;
3259;SDS011;22469;48.150;14.004;2023-02-10T07:13:03;31.33;;;19.47;;
3259;SDS011;22469;48.150;14.004;2023-02-10T07:15:30;32.53;;;22.27;;
3259;SDS011;22469;48.150;14.004;2023-02-10T07:17:57;38.17;;;24.87;;
3259;SDS011;22469;48.150;14.004;2023-02-10T07:20:24;48.07;;;31.50;;
3259;SDS011;22469;48.150;14.004;2023-02-10T07:22:52;46.47;;;27.80;;
3259;SDS011;22469;48.150;14.004;2023-02-10T07:25:19;50.63;;;31.77;;
3259;SDS011;22469;48.150;14.004;2023-02-10T07:27:46;39.40;;;25.70;;
3259;SDS011;22469;48.150;14.004;2023-02-10T07:30:13;39.43;;;23.37;;
3259;SDS011;22469;48.150;14.004;2023-02-10T07:32:40;40.77;;;22.67;;
3259;SDS011;22469;48.150;14.004;2023-02-10T07:35:08;38.27;;;24.83;;
3259;SDS011;22469;48.150;14.004;2023-02-10T07:37:36;39.87;;;25.30;;
3259;SDS011;22469;48.150;14.004;2023-02-10T07:40:04;44.90;;;26.40;;
3259;SDS011;22469;48.150;14.004;2023-02-10T07:42:31;37.90;;;26.03;;
3259;SDS011;22469;48.150;14.004;2023-02-10T07:44:58;41.83;;;24.57;;
3259;SDS011;22469;48.150;14.004;2023-02-10T07:47:26;36.53;;;23.50;;
3259;SDS011;22469;48.150;14.004;2023-02-10T07:49:53;31.33;;;23.10;;
3259;SDS011;22469;48.150;14.004;2023-02-10T07:52:21;29.53;;;20.13;;
3259;SDS011;22469;48.150;14.004;2023-02-10T07:54:48;31.77;;;21.70;;
3259;SDS011;22469;48.150;14.004;2023-02-10T07:57:16;33.93;;;19.80;;
3259;SDS011;22469;48.150;14.004;2023-02-10T07:59:43;28.37;;;18.73;;
3259;SDS011;22469;48.150;14.004;2023-02-10T08:02:10;26.10;;;17.03;;
3259;SDS011;22469;48.150;14.004;2023-02-10T08:04:38;18.40;;;14.17;;
3259;SDS011;22469;48.150;14.004;2023-02-10T08:07:05;26.70;;;16.67;;
3259;SDS011;22469;48.150;14.004;2023-02-10T08:09:32;20.13;;;15.17;;
3259;SDS011;22469;48.150;14.004;2023-02-10T08:11:59;26.77;;;19.83;;
3259;SDS011;22469;48.150;14.004;2023-02-10T08:14:26;30.47;;;18.33;;
3259;SDS011;22469;48.150;14.004;2023-02-10T08:16:53;29.27;;;18.13;;
3259;SDS011;22469;48.150;14.004;2023-02-10T08:19:20;25.67;;;14.90;;
3259;SDS011;22469;48.150;14.004;2023-02-10T08:21:47;19.93;;;14.07;;
3259;SDS011;22469;48.150;14.004;2023-02-10T08:24:14;23.10;;;16.77;;
3259;SDS011;22469;48.150;14.004;2023-02-10T08:26:41;25.70;;;18.17;;
3259;SDS011;22469;48.150;14.004;2023-02-10T08:29:09;20.57;;;16.80;;
3259;SDS011;22469;48.150;14.004;2023-02-10T08:31:39;25.93;;;15.70;;
3259;SDS011;22469;48.150;14.004;2023-02-10T08:34:11;25.20;;;16.67;;
3259;SDS011;22469;48.150;14.004;2023-02-10T08:36:42;28.40;;;19.00;;
3259;SDS011;22469;48.150;14.004;2023-02-10T08:39:10;26.03;;;16.87;;
3259;SDS011;22469;48.150;14.004;2023-02-10T08:41:38;29.60;;;17.83;;
3259;SDS011;22469;48.150;14.004;2023-02-10T08:44:05;34.60;;;19.43;;
3259;SDS011;22469;48.150;14.004;2023-02-10T08:46:33;24.63;;;18.10;;
3259;SDS011;22469;48.150;14.004;2023-02-10T08:49:01;30.70;;;20.50;;
3259;SDS011;22469;48.150;14.004;2023-02-10T08:51:28;28.20;;;19.73;;
3259;SDS011;22469;48.150;14.004;2023-02-10T08:53:56;34.63;;;22.17;;
3259;SDS011;22469;48.150;14.004;2023-02-10T08:56:24;31.83;;;19.57;;
3259;SDS011;22469;48.150;14.004;2023-02-10T08:58:52;34.00;;;20.40;;
3259;SDS011;22469;48.150;14.004;2023-02-10T09:01:21;33.03;;;20.27;;
3259;SDS011;22469;48.150;14.004;2023-02-10T09:03:55;32.40;;;19.27;;
3259;SDS011;22469;48.150;14.004;2023-02-10T09:08:54;34.50;;;20.60;;
3259;SDS011;22469;48.150;14.004;2023-02-10T09:11:21;32.50;;;22.07;;
3259;SDS011;22469;48.150;14.004;2023-02-10T09:13:50;26.23;;;20.70;;
3259;SDS011;22469;48.150;14.004;2023-02-10T09:16:19;34.97;;;22.97;;
3259;SDS011;22469;48.150;14.004;2023-02-10T09:18:46;34.73;;;21.13;;
3259;SDS011;22469;48.150;14.004;2023-02-10T09:21:13;30.00;;;19.80;;
3259;SDS011;22469;48.150;14.004;2023-02-10T09:23:40;35.27;;;22.63;;
3259;SDS011;22469;48.150;14.004;2023-02-10T09:26:09;29.23;;;20.37;;
3259;SDS011;22469;48.150;14.004;2023-02-10T09:28:36;35.40;;;21.00;;
3259;SDS011;22469;48.150;14.004;2023-02-10T09:31:06;33.53;;;21.83;;
3259;SDS011;22469;48.150;14.004;2023-02-10T09:33:35;30.50;;;18.50;;
3259;SDS011;22469;48.150;14.004;2023-02-10T09:36:03;35.83;;;23.10;;
3259;SDS011;22469;48.150;14.004;2023-02-10T09:38:32;33.40;;;22.87;;
3259;SDS011;22469;48.150;14.004;2023-02-10T09:58:04;33.40;;;23.63;;
3259;SDS011;22469;48.150;14.004;2023-02-10T10:01:24;34.87;;;21.80;;
3259;SDS011;22469;48.150;14.004;2023-02-10T10:06:51;36.50;;;23.60;;
3259;SDS011;22469;48.150;14.004;2023-02-10T10:09:43;33.10;;;22.83;;
3259;SDS011;22469;48.150;14.004;2023-02-10T10:12:17;32.83;;;21.20;;
3259;SDS011;22469;48.150;14.004;2023-02-10T10:14:46;33.83;;;22.90;;
3259;SDS011;22469;48.150;14.004;2023-02-10T10:20:32;34.17;;;22.10;;
3259;SDS011;22469;48.150;14.004;2023-02-10T10:23:47;35.47;;;22.10;;
3259;SDS011;22469;48.150;14.004;2023-02-10T10:35:43;28.07;;;19.10;;
3259;SDS011;22469;48.150;14.004;2023-02-10T10:41:18;29.60;;;21.40;;
3259;SDS011;22469;48.150;14.004;2023-02-10T10:43:53;37.63;;;23.03;;
3259;SDS011;22469;48.150;14.004;2023-02-10T10:46:24;34.73;;;22.03;;
3259;SDS011;22469;48.150;14.004;2023-02-10T10:49:21;33.60;;;23.47;;
3259;SDS011;22469;48.150;14.004;2023-02-10T10:51:48;32.53;;;22.27;;
3259;SDS011;22469;48.150;14.004;2023-02-10T10:54:15;35.37;;;24.60;;
3259;SDS011;22469;48.150;14.004;2023-02-10T10:56:51;31.80;;;23.53;;
3259;SDS011;22469;48.150;14.004;2023-02-10T10:59:30;36.80;;;23.53;;
3259;SDS011;22469;48.150;14.004;2023-02-10T11:04:44;35.00;;;21.60;;
3259;SDS011;22469;48.150;14.004;2023-02-10T11:07:19;32.83;;;23.27;;
3259;SDS011;22469;48.150;14.004;2023-02-10T11:09:50;33.73;;;24.63;;
3259;SDS011;22469;48.150;14.004;2023-02-10T11:14:53;34.93;;;24.70;;
3259;SDS011;22469;48.150;14.004;2023-02-10T11:20:37;34.03;;;23.57;;
3259;SDS011;22469;48.150;14.004;2023-02-10T11:22:39;30.90;;;21.60;;
3259;SDS011;22469;48.150;14.004;2023-02-10T11:25:28;32.33;;;23.87;;
3259;SDS011;22469;48.150;14.004;2023-02-10T11:27:56;30.50;;;23.00;;
3259;SDS011;22469;48.150;14.004;2023-02-10T11:33:05;31.63;;;20.60;;
3259;SDS011;22469;48.150;14.004;2023-02-10T11:35:52;35.17;;;21.97;;
3259;SDS011;22469;48.150;14.004;2023-02-10T11:38:31;32.10;;;22.80;;
3259;SDS011;22469;48.150;14.004;2023-02-10T11:41:07;36.00;;;24.40;;
3259;SDS011;22469;48.150;14.004;2023-02-10T11:43:46;37.00;;;21.87;;
3259;SDS011;22469;48.150;14.004;2023-02-10T11:46:32;30.97;;;21.70;;
3259;SDS011;22469;48.150;14.004;2023-02-10T11:49:03;32.37;;;23.17;;
3259;SDS011;22469;48.150;14.004;2023-02-10T11:51:35;30.23;;;20.93;;
3259;SDS011;22469;48.150;14.004;2023-02-10T11:54:02;34.23;;;21.80;;
3259;SDS011;22469;48.150;14.004;2023-02-10T12:02:11;31.30;;;21.83;;
3259;SDS011;22469;48.150;14.004;2023-02-10T12:05:03;34.50;;;22.97;;
3259;SDS011;22469;48.150;14.004;2023-02-10T12:19:40;29.10;;;21.77;;
3259;SDS011;22469;48.150;14.004;2023-02-10T12:25:16;32.03;;;22.43;;
3259;SDS011;22469;48.150;14.004;2023-02-10T12:28:05;32.27;;;20.47;;
3259;SDS011;22469;48.150;14.004;2023-02-10T12:36:49;35.27;;;24.67;;
3259;SDS011;22469;48.150;14.004;2023-02-10T12:39:40;33.37;;;21.97;;
3259;SDS011;22469;48.150;14.004;2023-02-10T12:42:49;36.63;;;22.70;;
3259;SDS011;22469;48.150;14.004;2023-02-10T12:45:30;36.47;;;20.27;;
3259;SDS011;22469;48.150;14.004;2023-02-10T12:56:34;30.97;;;22.27;;
3259;SDS011;22469;48.150;14.004;2023-02-10T12:59:13;32.87;;;23.03;;
3259;SDS011;22469;48.150;14.004;2023-02-10T13:02:23;40.13;;;23.87;;
3259;SDS011;22469;48.150;14.004;2023-02-10T13:04:50;34.30;;;23.97;;
3259;SDS011;22469;48.150;14.004;2023-02-10T13:10:32;40.80;;;22.70;;
3259;SDS011;22469;48.150;14.004;2023-02-10T13:13:11;32.07;;;22.50;;
3259;SDS011;22469;48.150;14.004;2023-02-10T13:21:57;33.90;;;23.80;;
3259;SDS011;22469;48.150;14.004;2023-02-10T13:36:22;32.40;;;22.13;;
3259;SDS011;22469;48.150;14.004;2023-02-10T13:38:58;35.37;;;23.47;;
3259;SDS011;22469;48.150;14.004;2023-02-10T13:41:44;37.33;;;24.00;;
3259;SDS011;22469;48.150;14.004;2023-02-10T13:44:30;35.80;;;23.87;;
3259;SDS011;22469;48.150;14.004;2023-02-10T13:49:36;35.20;;;24.50;;
3259;SDS011;22469;48.150;14.004;2023-02-10T14:00:55;32.60;;;21.73;;
3259;SDS011;22469;48.150;14.004;2023-02-10T14:03:24;33.40;;;23.60;;
3259;SDS011;22469;48.150;14.004;2023-02-10T14:08:30;32.00;;;23.57;;
3259;SDS011;22469;48.150;14.004;2023-02-10T14:11:29;29.60;;;20.87;;
3259;SDS011;22469;48.150;14.004;2023-02-10T14:14:18;27.30;;;21.63;;
3259;SDS011;22469;48.150;14.004;2023-02-10T14:16:51;32.80;;;22.87;;
3259;SDS011;22469;48.150;14.004;2023-02-10T14:22:04;30.87;;;21.03;;
3259;SDS011;22469;48.150;14.004;2023-02-10T14:24:34;30.13;;;21.87;;
3259;SDS011;22469;48.150;14.004;2023-02-10T14:27:16;32.67;;;24.40;;
3259;SDS011;22469;48.150;14.004;2023-02-10T14:29:48;38.37;;;22.87;;
3259;SDS011;22469;48.150;14.004;2023-02-10T14:32:43;32.90;;;21.50;;
3259;SDS011;22469;48.150;14.004;2023-02-10T14:35:16;33.80;;;23.17;;
3259;SDS011;22469;48.150;14.004;2023-02-10T14:37:55;34.23;;;23.37;;
3259;SDS011;22469;48.150;14.004;2023-02-10T14:40:26;35.17;;;23.87;;
3259;SDS011;22469;48.150;14.004;2023-02-10T14:43:02;29.40;;;21.87;;
3259;SDS011;22469;48.150;14.004;2023-02-10T14:45:30;32.17;;;23.53;;
3259;SDS011;22469;48.150;14.004;2023-02-10T14:47:58;27.47;;;20.60;;
3259;SDS011;22469;48.150;14.004;2023-02-10T14:50:32;31.27;;;21.67;;
3259;SDS011;22469;48.150;14.004;2023-02-10T14:53:05;30.30;;;21.80;;
3259;SDS011;22469;48.150;14.004;2023-02-10T14:55:34;31.27;;;22.20;;
3259;SDS011;22469;48.150;14.004;2023-02-10T14:58:12;30.73;;;21.87;;
3259;SDS011;22469;48.150;14.004;2023-02-10T15:00:51;30.40;;;22.03;;
3259;SDS011;22469;48.150;14.004;2023-02-10T15:03:22;28.17;;;20.83;;
3259;SDS011;22469;48.150;14.004;2023-02-10T15:05:50;31.33;;;21.03;;
3259;SDS011;22469;48.150;14.004;2023-02-10T15:08:28;30.90;;;22.30;;
3259;SDS011;22469;48.150;14.004;2023-02-10T15:11:13;29.00;;;21.30;;
3259;SDS011;22469;48.150;14.004;2023-02-10T15:14:11;31.57;;;20.63;;
3259;SDS011;22469;48.150;14.004;2023-02-10T15:16:45;34.27;;;23.90;;
3259;SDS011;22469;48.150;14.004;2023-02-10T15:19:14;32.20;;;23.30;;
3259;SDS011;22469;48.150;14.004;2023-02-10T15:21:44;34.57;;;23.97;;
3259;SDS011;22469;48.150;14.004;2023-02-10T15:26:49;41.00;;;25.03;;
3259;SDS011;22469;48.150;14.004;2023-02-10T15:29:17;34.10;;;23.50;;
3259;SDS011;22469;48.150;14.004;2023-02-10T15:31:52;31.20;;;23.13;;
3259;SDS011;22469;48.150;14.004;2023-02-10T15:37:04;36.20;;;26.40;;
3259;SDS011;22469;48.150;14.004;2023-02-10T15:39:53;35.10;;;24.63;;
3259;SDS011;22469;48.150;14.004;2023-02-10T15:42:27;43.83;;;26.30;;
3259;SDS011;22469;48.150;14.004;2023-02-10T15:45:20;34.23;;;25.90;;
3259;SDS011;22469;48.150;14.004;2023-02-10T15:48:01;35.13;;;24.57;;
3259;SDS011;22469;48.150;14.004;2023-02-10T15:50:34;33.13;;;22.83;;
3259;SDS011;22469;48.150;14.004;2023-02-10T15:53:02;37.53;;;24.93;;
3259;SDS011;22469;48.150;14.004;2023-02-10T15:55:36;37.07;;;25.67;;
3259;SDS011;22469;48.150;14.004;2023-02-10T15:58:08;34.60;;;24.73;;
3259;SDS011;22469;48.150;14.004;2023-02-10T16:00:38;32.80;;;25.30;;
3259;SDS011;22469;48.150;14.004;2023-02-10T16:03:08;36.50;;;24.67;;
3259;SDS011;22469;48.150;14.004;2023-02-10T16:05:36;35.43;;;24.07;;
3259;SDS011;22469;48.150;14.004;2023-02-10T16:08:06;35.73;;;25.00;;
3259;SDS011;22469;48.150;14.004;2023-02-10T16:10:48;35.77;;;26.10;;
3259;SDS011;22469;48.150;14.004;2023-02-10T16:13:16;36.13;;;26.93;;
3259;SDS011;22469;48.150;14.004;2023-02-10T16:15:46;36.27;;;25.47;;
3259;SDS011;22469;48.150;14.004;2023-02-10T16:18:19;42.10;;;24.40;;
3259;SDS011;22469;48.150;14.004;2023-02-10T16:20:49;39.40;;;26.70;;
3259;SDS011;22469;48.150;14.004;2023-02-10T16:23:18;31.90;;;23.87;;
3259;SDS011;22469;48.150;14.004;2023-02-10T16:25:46;35.80;;;25.17;;
3259;SDS011;22469;48.150;14.004;2023-02-10T16:28:16;41.80;;;26.47;;
3259;SDS011;22469;48.150;14.004;2023-02-10T16:30:45;43.13;;;26.07;;
3259;SDS011;22469;48.150;14.004;2023-02-10T16:33:15;36.53;;;25.70;;
3259;SDS011;22469;48.150;14.004;2023-02-10T16:35:43;35.70;;;24.53;;
3259;SDS011;22469;48.150;14.004;2023-02-10T16:38:10;38.13;;;25.67;;
3259;SDS011;22469;48.150;14.004;2023-02-10T16:40:43;37.50;;;26.80;;
3259;SDS011;22469;48.150;14.004;2023-02-10T16:43:10;37.93;;;26.37;;
3259;SDS011;22469;48.150;14.004;2023-02-10T16:45:36;39.80;;;25.77;;
3259;SDS011;22469;48.150;14.004;2023-02-10T16:48:04;44.53;;;28.30;;
3259;SDS011;22469;48.150;14.004;2023-02-10T16:50:35;45.43;;;28.27;;
3259;SDS011;22469;48.150;14.004;2023-02-10T16:53:07;43.00;;;26.87;;
3259;SDS011;22469;48.150;14.004;2023-02-10T16:55:37;44.60;;;28.50;;
3259;SDS011;22469;48.150;14.004;2023-02-10T16:58:05;39.87;;;27.50;;
3259;SDS011;22469;48.150;14.004;2023-02-10T17:00:36;38.57;;;27.40;;
3259;SDS011;22469;48.150;14.004;2023-02-10T17:03:02;44.23;;;27.57;;
3259;SDS011;22469;48.150;14.004;2023-02-10T17:05:30;44.90;;;28.57;;
3259;SDS011;22469;48.150;14.004;2023-02-10T17:07:59;44.07;;;28.33;;
3259;SDS011;22469;48.150;14.004;2023-02-10T17:10:27;41.17;;;28.50;;
3259;SDS011;22469;48.150;14.004;2023-02-10T17:12:56;50.40;;;30.33;;
3259;SDS011;22469;48.150;14.004;2023-02-10T17:15:23;41.27;;;26.43;;
3259;SDS011;22469;48.150;14.004;2023-02-10T17:17:52;45.27;;;28.43;;
3259;SDS011;22469;48.150;14.004;2023-02-10T17:22:57;49.63;;;30.83;;
3259;SDS011;22469;48.150;14.004;2023-02-10T17:25:24;40.17;;;30.07;;